createdAt,value
2022-09-26T00:00:53.541Z,53.17
2022-09-26T00:03:20.371Z,47.63
2022-09-26T00:05:47.201Z,51.23
2022-09-26T00:08:13.888Z,43.17
2022-09-26T00:10:40.593Z,42.73
2022-09-26T00:13:07.662Z,37.03
2022-09-26T00:15:34.400Z,44.50
2022-09-26T00:18:01.150Z,38.57
2022-09-26T00:20:27.882Z,38.73
2022-09-26T00:22:54.580Z,35.33
2022-09-26T00:25:21.275Z,31.90
2022-09-26T00:27:47.965Z,33.27
2022-09-26T00:30:14.753Z,33.50
2022-09-26T00:32:41.739Z,36.93
2022-09-26T00:35:08.961Z,29.73
2022-09-26T00:37:35.803Z,35.97
2022-09-26T00:40:02.521Z,42.90
2022-09-26T00:42:29.372Z,41.90
2022-09-26T00:44:56.905Z,37.33
2022-09-26T00:47:36.682Z,37.67
2022-09-26T00:50:26.504Z,39.57
2022-09-26T00:52:59.772Z,33.50
2022-09-26T00:55:30.795Z,35.17
2022-09-26T00:58:04.569Z,36.17
2022-09-26T01:00:31.557Z,39.00
2022-09-26T01:02:58.726Z,39.90
2022-09-26T01:05:25.923Z,37.60
2022-09-26T01:07:56.370Z,37.50
2022-09-26T01:10:24.550Z,36.87
2022-09-26T01:12:52.444Z,36.27
2022-09-26T01:15:19.596Z,37.27
2022-09-26T01:17:46.791Z,39.33
2022-09-26T01:20:16.298Z,39.80
2022-09-26T01:23:09.116Z,38.87
2022-09-26T01:26:19.019Z,37.13
2022-09-26T01:29:04.536Z,42.20
2022-09-26T01:32:11.633Z,35.10
2022-09-26T01:35:02.333Z,38.33
2022-09-26T01:37:29.066Z,37.03
2022-09-26T01:40:10.293Z,43.70
2022-09-26T01:42:37.086Z,42.20
2022-09-26T01:45:21.871Z,42.57
2022-09-26T01:48:03.264Z,38.47
2022-09-26T01:50:43.314Z,37.97
2022-09-26T01:53:18.482Z,37.33
2022-09-26T01:56:05.496Z,40.37
2022-09-26T01:58:39.512Z,42.13
2022-09-26T02:01:10.573Z,41.50
2022-09-26T02:03:46.542Z,36.67
2022-09-26T02:06:18.527Z,39.83
2022-09-26T02:08:53.659Z,55.77
2022-09-26T02:11:20.475Z,55.13
2022-09-26T02:14:11.968Z,59.23
2022-09-26T02:16:43.401Z,64.43
2022-09-26T02:19:27.985Z,59.33
2022-09-26T02:21:55.860Z,54.07
2022-09-26T02:24:23.369Z,42.37
2022-09-26T02:26:51.637Z,36.77
2022-09-26T02:29:18.874Z,36.83
2022-09-26T02:31:52.004Z,36.80
2022-09-26T02:34:18.813Z,35.53
2022-09-26T02:36:46.134Z,38.77
2022-09-26T02:39:13.322Z,32.93
2022-09-26T02:41:57.088Z,35.03
2022-09-26T02:44:55.708Z,36.03
2022-09-26T02:47:41.065Z,38.83
2022-09-26T02:50:37.475Z,39.37
2022-09-26T02:53:08.098Z,37.87
2022-09-26T02:55:34.841Z,37.90
2022-09-26T02:58:13.362Z,36.17
2022-09-26T03:00:59.291Z,36.43
2022-09-26T03:03:35.348Z,36.77
2022-09-26T03:06:05.169Z,37.70
2022-09-26T03:08:38.534Z,38.53
2022-09-26T03:11:08.222Z,36.13
2022-09-26T03:13:38.363Z,37.53
2022-09-26T03:16:06.961Z,33.03
2022-09-26T03:18:51.886Z,32.83
2022-09-26T03:21:18.807Z,33.10
2022-09-26T03:23:45.984Z,32.43
2022-09-26T03:26:17.219Z,32.20
2022-09-26T03:28:44.523Z,32.03
2022-09-26T03:31:11.593Z,33.83
2022-09-26T03:33:38.882Z,37.27
2022-09-26T03:36:09.442Z,33.43
2022-09-26T03:38:36.282Z,34.67
2022-09-26T03:41:03.290Z,36.03
2022-09-26T03:43:31.449Z,32.63
2022-09-26T03:46:06.338Z,37.97
2022-09-26T03:48:33.936Z,39.23
2022-09-26T03:51:05.525Z,33.40
2022-09-26T03:53:40.530Z,31.60
2022-09-26T03:56:13.081Z,30.37
2022-09-26T03:58:39.789Z,32.23
2022-09-26T04:01:13.601Z,32.70
2022-09-26T04:03:47.816Z,31.63
2022-09-26T04:06:20.306Z,37.30
2022-09-26T04:08:49.635Z,36.87
2022-09-26T04:11:19.446Z,37.37
2022-09-26T04:13:51.868Z,32.07
2022-09-26T04:16:20.789Z,34.33
2022-09-26T04:18:47.877Z,37.63
2022-09-26T04:21:15.341Z,37.67
2022-09-26T04:23:43.317Z,34.53
2022-09-26T04:26:11.790Z,33.40
2022-09-26T04:28:39.835Z,39.33
2022-09-26T04:31:08.454Z,34.67
2022-09-26T04:33:35.298Z,35.37
2022-09-26T04:36:12.229Z,37.47
2022-09-26T04:38:39.357Z,32.97
2022-09-26T04:41:07.098Z,31.57
2022-09-26T04:43:34.552Z,29.20
2022-09-26T04:46:02.295Z,30.87
2022-09-26T04:48:29.050Z,31.87
2022-09-26T04:50:55.827Z,32.00
2022-09-26T04:53:23.195Z,37.80
2022-09-26T04:55:50.529Z,34.60
2022-09-26T04:58:17.522Z,37.30
2022-09-26T05:00:47.981Z,41.70
2022-09-26T05:03:15.977Z,42.57
2022-09-26T05:05:47.567Z,41.40
2022-09-26T05:08:15.088Z,40.13
2022-09-26T05:10:42.971Z,38.63
2022-09-26T05:13:10.920Z,38.90
2022-09-26T05:15:39.984Z,33.80
2022-09-26T05:18:07.860Z,35.57
2022-09-26T05:20:37.686Z,39.80
2022-09-26T05:23:06.970Z,74.63
2022-09-26T05:26:00.354Z,68.90
2022-09-26T05:28:27.652Z,78.00
2022-09-26T05:30:54.489Z,78.50
2022-09-26T05:33:21.789Z,84.43
2022-09-26T05:35:54.898Z,75.67
2022-09-26T05:38:21.833Z,73.37
2022-09-26T05:40:57.556Z,72.97
2022-09-26T05:43:30.125Z,70.47
2022-09-26T05:45:58.677Z,63.47
2022-09-26T05:48:29.828Z,64.67
2022-09-26T05:50:56.857Z,66.73
2022-09-26T05:53:25.208Z,63.43
2022-09-26T05:55:52.456Z,55.00
2022-09-26T05:58:19.419Z,45.30
2022-09-26T06:00:49.966Z,38.60
2022-09-26T06:03:16.889Z,36.40
2022-09-26T06:05:43.687Z,36.57
2022-09-26T06:08:10.950Z,37.13
2022-09-26T06:10:38.752Z,36.10
2022-09-26T06:13:07.712Z,36.17
2022-09-26T06:15:34.472Z,37.77
2022-09-26T06:18:04.480Z,33.03
2022-09-26T06:20:35.024Z,34.27
2022-09-26T06:23:01.851Z,32.30
2022-09-26T06:25:29.346Z,33.23
2022-09-26T06:28:00.154Z,33.30
2022-09-26T06:30:27.534Z,35.40
2022-09-26T06:32:54.703Z,34.27
2022-09-26T06:35:21.936Z,34.73
2022-09-26T06:37:48.665Z,32.10
2022-09-26T06:40:16.033Z,29.10
2022-09-26T06:42:43.454Z,27.80
2022-09-26T06:45:11.110Z,30.03
2022-09-26T06:47:37.895Z,27.77
2022-09-26T06:50:05.349Z,28.83
2022-09-26T06:52:34.965Z,29.17
2022-09-26T06:55:03.609Z,39.60
2022-09-26T06:57:37.683Z,28.77
2022-09-26T07:00:05.111Z,25.97
2022-09-26T07:02:31.814Z,27.80
2022-09-26T07:04:59.651Z,24.00
2022-09-26T07:07:26.338Z,25.60
2022-09-26T07:09:53.043Z,24.67
2022-09-26T07:12:19.834Z,23.20
2022-09-26T07:14:51.375Z,19.70
2022-09-26T07:17:20.310Z,18.63
2022-09-26T07:19:52.189Z,19.77
2022-09-26T07:22:19.196Z,19.57
2022-09-26T07:24:48.734Z,20.67
2022-09-26T07:27:17.207Z,22.77
2022-09-26T07:29:47.372Z,23.37
2022-09-26T07:32:14.466Z,20.77
2022-09-26T07:34:41.865Z,19.67
2022-09-26T07:37:08.725Z,20.83
2022-09-26T07:39:35.680Z,17.10
2022-09-26T07:42:03.615Z,17.43
2022-09-26T07:45:09.713Z,17.13
2022-09-26T07:47:36.123Z,17.73
2022-09-26T07:50:13.422Z,17.02
2022-09-26T07:52:45.888Z,15.67
2022-09-26T07:55:30.768Z,16.30
2022-09-26T07:57:59.276Z,16.13
2022-09-26T08:00:26.483Z,15.25
2022-09-26T08:02:53.273Z,15.75
2022-09-26T08:05:20.302Z,16.52
2022-09-26T08:07:48.044Z,16.63
2022-09-26T08:10:22.140Z,13.70
2022-09-26T08:12:49.151Z,14.32
2022-09-26T08:15:16.448Z,13.65
2022-09-26T08:17:43.595Z,14.68
2022-09-26T08:20:11.027Z,14.48
2022-09-26T08:22:37.931Z,13.70
2022-09-26T08:25:06.913Z,15.55
2022-09-26T08:27:34.672Z,14.73
2022-09-26T08:30:04.289Z,13.35
2022-09-26T08:32:32.459Z,13.50
2022-09-26T08:35:00.213Z,12.55
2022-09-26T08:37:28.044Z,13.23
2022-09-26T08:39:54.826Z,12.57
2022-09-26T08:42:41.967Z,11.32
2022-09-26T08:45:56.377Z,11.48
2022-09-26T08:48:43.125Z,14.27
2022-09-26T08:51:37.538Z,11.90
2022-09-26T08:54:12.841Z,11.52
2022-09-26T08:56:44.257Z,11.68
2022-09-26T08:59:22.953Z,13.23
2022-09-26T09:01:52.718Z,11.93
2022-09-26T09:04:35.093Z,13.10
2022-09-26T09:07:15.255Z,12.02
2022-09-26T09:09:41.977Z,12.02
2022-09-26T09:12:40.781Z,15.13
2022-09-26T09:15:33.489Z,11.55
2022-09-26T09:18:29.259Z,13.15
2022-09-26T09:21:15.237Z,11.65
2022-09-26T09:23:41.959Z,13.35
2022-09-26T09:29:58.846Z,12.05
2022-09-26T09:32:32.632Z,11.65
2022-09-26T09:35:01.342Z,10.55
2022-09-26T09:37:43.110Z,11.63
2022-09-26T09:40:54.248Z,13.77
2022-09-26T09:43:47.537Z,11.50
2022-09-26T09:46:23.715Z,14.45
2022-09-26T09:48:56.688Z,12.13
2022-09-26T09:51:34.332Z,9.98
2022-09-26T09:54:25.326Z,12.48
2022-09-26T09:57:39.099Z,11.02
2022-09-26T10:00:16.575Z,9.55
2022-09-26T10:02:44.170Z,11.30
2022-09-26T10:05:31.091Z,11.85
2022-09-26T10:07:59.243Z,10.98
2022-09-26T10:10:48.151Z,9.48
2022-09-26T10:13:17.669Z,11.80
2022-09-26T10:16:01.686Z,10.75
2022-09-26T10:18:28.482Z,11.70
2022-09-26T10:21:06.750Z,7.22
2022-09-26T10:23:35.712Z,10.80
2022-09-26T10:26:05.625Z,9.52
2022-09-26T10:28:48.049Z,9.15
2022-09-26T10:31:41.303Z,7.75
2022-09-26T10:34:24.166Z,7.97
2022-09-26T10:36:50.871Z,10.45
2022-09-26T10:39:44.849Z,15.70
2022-09-26T10:42:21.981Z,7.68
2022-09-26T10:44:50.530Z,10.48
2022-09-26T10:47:21.877Z,8.90
2022-09-26T10:50:01.220Z,10.98
2022-09-26T10:52:45.422Z,9.25
2022-09-26T10:55:17.650Z,8.00
2022-09-26T10:57:50.120Z,8.63
2022-09-26T11:00:41.508Z,9.90
2022-09-26T11:03:11.164Z,11.27
2022-09-26T11:05:59.189Z,9.55
2022-09-26T11:08:31.622Z,10.77
2022-09-26T11:11:01.191Z,11.15
2022-09-26T11:13:32.292Z,12.10
2022-09-26T11:16:01.480Z,13.85
2022-09-26T11:18:42.585Z,11.13
2022-09-26T11:21:43.092Z,12.32
2022-09-26T11:24:28.399Z,13.65
2022-09-26T11:27:19.464Z,13.25
2022-09-26T11:30:02.160Z,11.15
2022-09-26T11:32:30.743Z,15.48
2022-09-26T11:35:06.126Z,17.63
2022-09-26T11:37:50.819Z,14.43
2022-09-26T11:40:39.282Z,14.38
2022-09-26T11:43:18.056Z,21.83
2022-09-26T11:46:04.529Z,18.80
2022-09-26T11:48:44.473Z,12.23
2022-09-26T11:51:55.599Z,9.52
2022-09-26T11:54:40.385Z,6.72
2022-09-26T11:57:34.939Z,6.38
2022-09-26T12:00:08.777Z,6.95
2022-09-26T12:03:05.173Z,7.28
2022-09-26T12:05:54.266Z,6.18
2022-09-26T12:08:47.656Z,8.82
2022-09-26T12:11:19.491Z,7.43
2022-09-26T12:13:59.367Z,3.88
2022-09-26T12:16:35.915Z,4.05
2022-09-26T12:19:15.551Z,5.97
2022-09-26T12:22:20.868Z,5.70
2022-09-26T12:24:58.446Z,5.25
2022-09-26T12:27:59.191Z,21.77
2022-09-26T12:30:33.208Z,7.80
2022-09-26T12:33:30.164Z,7.85
2022-09-26T12:36:12.647Z,6.50
2022-09-26T12:38:42.504Z,6.13
2022-09-26T12:41:30.511Z,5.15
2022-09-26T12:44:22.362Z,5.53
2022-09-26T12:46:58.717Z,7.40
2022-09-26T13:01:47.624Z,5.90
2022-09-26T13:04:35.860Z,8.20
2022-09-26T13:07:25.725Z,7.55
2022-09-26T13:10:10.263Z,4.53
2022-09-26T13:13:08.373Z,6.13
2022-09-26T13:15:52.192Z,8.48
2022-09-26T13:18:28.264Z,8.50
2022-09-26T13:21:03.979Z,8.27
2022-09-26T13:23:58.751Z,8.10
2022-09-26T13:26:45.283Z,10.32
2022-09-26T13:29:26.654Z,9.60
2022-09-26T13:32:23.079Z,5.65
2022-09-26T13:35:04.187Z,9.88
2022-09-26T13:37:41.104Z,7.50
2022-09-26T13:40:21.361Z,7.20
2022-09-26T13:43:07.511Z,4.55
2022-09-26T13:45:58.601Z,6.68
2022-09-26T13:48:51.864Z,5.82
2022-09-26T13:51:27.079Z,4.93
2022-09-26T13:54:20.240Z,2.67
2022-09-26T13:56:49.668Z,3.83
2022-09-26T13:59:19.456Z,4.78
2022-09-26T14:02:19.660Z,6.28
2022-09-26T14:04:51.353Z,6.35
2022-09-26T14:08:01.300Z,4.90
2022-09-26T14:10:38.571Z,3.80
2022-09-26T14:13:11.556Z,5.07
2022-09-26T14:15:47.568Z,6.82
2022-09-26T14:18:15.499Z,5.13
2022-09-26T14:24:24.863Z,4.50
2022-09-26T14:27:11.813Z,6.80
2022-09-26T14:29:38.499Z,10.80
2022-09-26T14:32:37.934Z,5.32
2022-09-26T14:35:30.291Z,5.75
2022-09-26T14:38:09.694Z,4.90
2022-09-26T14:40:51.398Z,6.05
2022-09-26T14:43:19.817Z,7.35
2022-09-26T14:45:52.552Z,7.53
2022-09-26T14:48:40.320Z,6.72
2022-09-26T14:51:16.559Z,7.95
2022-09-26T14:53:55.386Z,7.22
2022-09-26T14:56:25.553Z,8.52
2022-09-26T14:58:53.597Z,5.93
2022-09-26T15:01:36.453Z,5.88
2022-09-26T15:04:08.520Z,11.13
2022-09-26T15:06:41.791Z,7.60
2022-09-26T15:09:16.408Z,10.52
2022-09-26T15:11:47.821Z,14.65
2022-09-26T15:14:41.127Z,15.57
2022-09-26T15:17:17.880Z,12.68
2022-09-26T15:19:51.607Z,9.05
2022-09-26T15:22:24.700Z,12.15
2022-09-26T15:24:56.074Z,11.27
2022-09-26T15:27:29.253Z,11.75
2022-09-26T15:30:16.871Z,10.07
2022-09-26T15:32:44.521Z,9.15
2022-09-26T15:35:13.668Z,8.15
2022-09-26T15:37:41.400Z,11.75
2022-09-26T15:40:23.241Z,7.57
2022-09-26T15:43:05.454Z,9.02
2022-09-26T15:45:47.131Z,4.32
2022-09-26T15:48:20.312Z,6.82
2022-09-26T15:50:53.779Z,9.15
2022-09-26T15:53:43.287Z,8.00
2022-09-26T15:56:14.168Z,10.63
2022-09-26T15:58:55.126Z,10.10
2022-09-26T16:01:25.790Z,10.45
2022-09-26T16:04:05.659Z,9.45
2022-09-26T16:06:38.411Z,8.80
2022-09-26T16:09:21.343Z,8.65
2022-09-26T16:11:55.488Z,7.50
2022-09-26T16:14:51.016Z,10.40
2022-09-26T16:17:36.219Z,12.35
2022-09-26T16:20:18.095Z,12.18
2022-09-26T16:22:52.940Z,15.83
2022-09-26T16:25:19.792Z,19.73
2022-09-26T16:28:10.546Z,17.85
2022-09-26T16:31:07.655Z,17.63
2022-09-26T16:33:37.563Z,21.33
2022-09-26T16:36:15.161Z,39.42
2022-09-26T16:38:42.138Z,58.07
2022-09-26T16:41:49.011Z,68.55
2022-09-26T16:44:35.349Z,92.20
2022-09-26T16:47:06.161Z,125.20
2022-09-26T16:49:47.546Z,111.70
2022-09-26T16:52:36.609Z,107.63
2022-09-26T16:55:09.045Z,102.73
2022-09-26T16:57:51.390Z,97.73
2022-09-26T17:00:42.820Z,96.93
2022-09-26T17:03:23.957Z,103.47
2022-09-26T17:05:52.871Z,93.57
2022-09-26T17:08:20.121Z,79.60
2022-09-26T17:10:46.846Z,78.90
2022-09-26T17:13:29.352Z,86.70
2022-09-26T17:15:57.551Z,112.70
2022-09-26T17:18:29.332Z,118.20
2022-09-26T17:20:59.231Z,114.07
2022-09-26T17:23:40.958Z,118.33
2022-09-26T17:26:12.219Z,119.53
2022-09-26T17:28:42.838Z,193.73
2022-09-26T17:31:19.067Z,168.20
2022-09-26T17:33:47.515Z,135.50
2022-09-26T17:36:28.796Z,130.97
2022-09-26T17:38:59.433Z,129.47
2022-09-26T17:41:27.971Z,127.87
2022-09-26T17:44:01.122Z,140.07
2022-09-26T17:46:28.602Z,140.00
2022-09-26T17:48:56.156Z,134.83
2022-09-26T17:51:23.938Z,134.87
2022-09-26T17:53:52.715Z,114.00
2022-09-26T17:56:20.343Z,100.17
2022-09-26T17:58:49.030Z,87.57
2022-09-26T18:01:39.291Z,92.40
2022-09-26T18:04:07.540Z,113.40
2022-09-26T18:06:34.842Z,138.77
2022-09-26T18:09:07.673Z,138.37
2022-09-26T18:11:36.277Z,134.40
2022-09-26T18:14:05.723Z,118.53
2022-09-26T18:16:32.475Z,112.17
2022-09-26T18:19:03.425Z,105.13
2022-09-26T18:21:34.302Z,109.47
2022-09-26T18:24:06.443Z,119.70
2022-09-26T18:26:37.311Z,110.90
2022-09-26T18:29:07.752Z,93.97
2022-09-26T18:31:39.075Z,90.60
2022-09-26T18:34:11.397Z,84.07
2022-09-26T18:36:38.192Z,77.47
2022-09-26T18:39:05.235Z,66.50
2022-09-26T18:41:32.604Z,67.47
2022-09-26T18:44:01.212Z,63.07
2022-09-26T18:46:29.216Z,71.57
2022-09-26T18:48:58.351Z,77.53
2022-09-26T18:51:26.547Z,77.27
2022-09-26T18:53:53.270Z,69.13
2022-09-26T18:56:38.568Z,85.37
2022-09-26T18:59:05.347Z,150.20
2022-09-26T19:01:38.423Z,154.13
2022-09-26T19:04:10.566Z,164.03
2022-09-26T19:06:41.729Z,136.60
2022-09-26T19:09:13.046Z,105.97
2022-09-26T19:11:39.945Z,81.97
2022-09-26T19:14:15.030Z,73.60
2022-09-26T19:16:46.752Z,84.53
2022-09-26T19:19:14.607Z,72.83
2022-09-26T19:21:42.565Z,63.43
2022-09-26T19:24:32.693Z,55.40
2022-09-26T19:27:06.286Z,52.97
2022-09-26T19:29:38.386Z,58.37
2022-09-26T19:32:06.443Z,55.00
2022-09-26T19:34:33.808Z,48.27
2022-09-26T19:37:03.007Z,44.87
2022-09-26T19:39:29.976Z,46.37
2022-09-26T19:41:56.942Z,50.30
2022-09-26T19:44:24.571Z,44.47
2022-09-26T19:46:51.443Z,42.60
2022-09-26T19:49:19.927Z,40.60
2022-09-26T19:51:47.348Z,45.23
2022-09-26T19:54:17.576Z,51.00
2022-09-26T19:56:45.787Z,45.33
2022-09-26T19:59:13.945Z,53.03
2022-09-26T20:01:42.961Z,41.63
2022-09-26T20:04:16.345Z,36.67
2022-09-26T20:06:43.724Z,33.23
2022-09-26T20:09:19.196Z,36.57
2022-09-26T20:11:46.237Z,29.53
2022-09-26T20:14:25.200Z,30.13
2022-09-26T20:17:03.038Z,28.73
2022-09-26T20:19:40.318Z,30.00
2022-09-26T20:22:13.629Z,40.13
2022-09-26T20:24:43.603Z,45.87
2022-09-26T20:27:21.778Z,36.33
2022-09-26T20:30:08.120Z,31.70
2022-09-26T20:32:36.373Z,30.77
2022-09-26T20:35:04.613Z,29.83
2022-09-26T20:37:39.324Z,28.73
2022-09-26T20:40:14.321Z,27.10
2022-09-26T20:42:44.640Z,30.37
2022-09-26T20:45:33.673Z,27.47
2022-09-26T20:48:01.100Z,29.73
2022-09-26T20:50:34.042Z,29.60
2022-09-26T20:53:01.578Z,24.07
2022-09-26T20:55:28.304Z,24.67
2022-09-26T20:57:55.428Z,28.17
2022-09-26T21:00:22.298Z,29.00
2022-09-26T21:02:52.529Z,29.70
2022-09-26T21:05:24.939Z,32.17
2022-09-26T21:07:53.281Z,26.43
2022-09-26T21:10:33.440Z,29.13
2022-09-26T21:13:01.668Z,27.53
2022-09-26T21:15:30.820Z,26.20
2022-09-26T21:17:58.458Z,26.13
2022-09-26T21:20:26.860Z,25.63
2022-09-26T21:22:54.929Z,24.10
2022-09-26T21:25:25.158Z,26.27
2022-09-26T21:27:56.993Z,26.97
2022-09-26T21:30:24.114Z,33.57
2022-09-26T21:32:54.882Z,27.73
2022-09-26T21:35:24.861Z,26.27
2022-09-26T21:37:53.154Z,25.37
2022-09-26T21:40:25.269Z,25.10
2022-09-26T21:42:58.608Z,26.13
2022-09-26T21:45:27.746Z,26.53
2022-09-26T21:47:56.997Z,22.47
2022-09-26T21:50:26.766Z,24.33
2022-09-26T21:52:59.112Z,25.40
2022-09-26T21:55:35.671Z,23.87
2022-09-26T21:58:08.190Z,21.53
2022-09-26T22:00:34.931Z,24.33
2022-09-26T22:03:01.716Z,26.27
2022-09-26T22:05:29.002Z,25.50
2022-09-26T22:07:56.732Z,24.10
2022-09-26T22:10:23.618Z,27.40
2022-09-26T22:12:52.299Z,32.17
2022-09-26T22:15:19.882Z,26.50
2022-09-26T22:17:47.017Z,26.93
2022-09-26T22:20:13.918Z,24.40
2022-09-26T22:22:40.756Z,21.83
2022-09-26T22:25:10.487Z,24.90
2022-09-26T22:27:37.963Z,24.63
2022-09-26T22:30:06.254Z,24.80
2022-09-26T22:32:32.991Z,23.37
2022-09-26T22:34:59.737Z,23.83
2022-09-26T22:37:26.527Z,28.57
2022-09-26T22:39:53.410Z,23.57
2022-09-26T22:42:20.324Z,24.57
2022-09-26T22:44:47.030Z,21.93
2022-09-26T22:47:13.818Z,22.40
2022-09-26T22:49:40.920Z,26.67
2022-09-26T22:52:07.702Z,24.10
2022-09-26T22:54:34.496Z,24.03
2022-09-26T22:57:01.377Z,22.43
2022-09-26T22:59:28.752Z,22.83
2022-09-26T23:01:58.374Z,23.80
2022-09-26T23:04:45.369Z,22.77
2022-09-26T23:07:13.649Z,26.23
2022-09-26T23:09:40.666Z,24.27
2022-09-26T23:12:07.680Z,30.63
2022-09-26T23:14:34.673Z,28.53
2022-09-26T23:17:01.714Z,28.93
2022-09-26T23:19:29.125Z,29.00
2022-09-26T23:21:58.171Z,27.83
2022-09-26T23:24:25.123Z,27.87
2022-09-26T23:26:51.979Z,29.57
2022-09-26T23:29:18.715Z,26.20
2022-09-26T23:31:45.695Z,26.57
2022-09-26T23:34:12.488Z,28.23
2022-09-26T23:36:39.214Z,26.60
2022-09-26T23:39:06.153Z,27.83
2022-09-26T23:41:33.019Z,27.27
2022-09-26T23:43:59.787Z,28.17
2022-09-26T23:46:26.694Z,27.30
2022-09-26T23:48:53.552Z,28.40
2022-09-26T23:51:20.442Z,29.57
2022-09-26T23:53:48.386Z,24.87
2022-09-26T23:56:15.437Z,29.10
2022-09-26T23:58:42.686Z,27.70
